createdAt,value
2023-01-17T00:01:09.841Z,73.85
2023-01-17T00:03:37.690Z,72.68
2023-01-17T00:06:04.728Z,72.76
2023-01-17T00:08:31.354Z,71.10
2023-01-17T00:10:58.146Z,70.94
2023-01-17T00:13:24.739Z,68.80
2023-01-17T00:15:51.499Z,69.30
2023-01-17T00:18:20.769Z,71.26
2023-01-17T00:20:47.455Z,70.85
2023-01-17T00:23:19.939Z,68.52
2023-01-17T00:25:46.673Z,68.70
2023-01-17T00:28:13.356Z,67.54
2023-01-17T00:30:40.103Z,68.47
2023-01-17T00:33:06.830Z,70.76
2023-01-17T00:35:34.786Z,69.92
2023-01-17T00:38:06.612Z,69.92
2023-01-17T00:40:35.335Z,69.15
2023-01-17T00:43:02.241Z,69.45
2023-01-17T00:45:28.835Z,70.85
2023-01-17T00:47:56.943Z,69.15
2023-01-17T00:50:23.883Z,69.45
2023-01-17T00:52:50.579Z,68.84
2023-01-17T00:55:17.169Z,69.87
2023-01-17T00:57:43.767Z,69.24
2023-01-17T01:00:11.049Z,68.43
2023-01-17T01:02:38.644Z,69.69
2023-01-17T01:05:05.692Z,71.06
2023-01-17T01:07:32.301Z,73.18
2023-01-17T01:09:58.967Z,71.51
2023-01-17T01:12:25.549Z,72.46
2023-01-17T01:14:52.152Z,72.99
2023-01-17T01:17:18.912Z,74.63
2023-01-17T01:19:46.136Z,72.35
2023-01-17T01:22:12.963Z,70.53
2023-01-17T01:24:39.585Z,69.48
2023-01-17T01:27:09.433Z,68.66
2023-01-17T01:29:36.349Z,70.59
2023-01-17T01:32:02.990Z,71.14
2023-01-17T01:34:29.642Z,72.60
2023-01-17T01:36:56.239Z,70.93
2023-01-17T01:39:22.890Z,69.47
2023-01-17T01:41:49.566Z,68.43
2023-01-17T01:44:41.567Z,67.48
2023-01-17T01:47:12.269Z,69.59
2023-01-17T01:49:38.994Z,73.16
2023-01-17T01:52:08.401Z,72.71
2023-01-17T01:55:11.597Z,73.34
2023-01-17T01:57:44.022Z,72.06
2023-01-17T02:00:18.324Z,72.35
2023-01-17T02:02:49.982Z,72.15
2023-01-17T02:05:20.572Z,70.62
2023-01-17T02:07:57.884Z,70.76
2023-01-17T02:10:24.665Z,71.19
2023-01-17T02:12:54.388Z,69.73
2023-01-17T02:15:31.466Z,68.93
2023-01-17T02:18:27.698Z,67.92
2023-01-17T02:21:12.465Z,69.26
2023-01-17T02:24:06.444Z,67.61
2023-01-17T02:26:54.830Z,67.33
2023-01-17T02:29:36.427Z,67.71
2023-01-17T02:32:15.874Z,68.93
2023-01-17T02:35:04.661Z,68.67
2023-01-17T02:38:02.916Z,69.03
2023-01-17T02:40:55.810Z,72.65
2023-01-17T02:43:24.653Z,73.90
2023-01-17T02:45:51.735Z,75.14
2023-01-17T02:48:24.589Z,75.62
2023-01-17T02:51:22.245Z,72.91
2023-01-17T02:54:30.323Z,71.09
2023-01-17T02:57:32.795Z,75.43
2023-01-17T03:00:41.774Z,76.03
2023-01-17T03:03:22.835Z,77.27
2023-01-17T03:06:05.559Z,75.13
2023-01-17T03:08:34.818Z,73.36
2023-01-17T03:11:01.715Z,72.43
2023-01-17T03:13:28.402Z,71.59
2023-01-17T03:15:55.126Z,69.64
2023-01-17T03:18:21.759Z,69.10
2023-01-17T03:20:48.378Z,70.34
2023-01-17T03:23:14.975Z,69.23
2023-01-17T03:25:41.714Z,69.33
2023-01-17T03:28:08.408Z,68.14
2023-01-17T03:30:35.152Z,70.33
2023-01-17T03:33:01.956Z,70.55
2023-01-17T03:35:29.123Z,68.73
2023-01-17T03:37:56.101Z,67.68
2023-01-17T03:40:23.159Z,68.81
2023-01-17T03:42:49.769Z,71.95
2023-01-17T03:45:16.368Z,74.39
2023-01-17T03:47:43.048Z,76.05
2023-01-17T03:50:10.516Z,77.28
2023-01-17T03:52:37.243Z,75.09
2023-01-17T03:55:04.599Z,74.97
2023-01-17T03:57:31.311Z,75.17
2023-01-17T03:59:57.987Z,75.61
2023-01-17T04:02:24.712Z,77.66
2023-01-17T04:04:51.637Z,74.75
2023-01-17T04:07:18.532Z,71.81
2023-01-17T04:09:45.201Z,71.03
2023-01-17T04:12:12.439Z,71.19
2023-01-17T04:14:39.561Z,69.42
2023-01-17T04:17:06.430Z,68.93
2023-01-17T04:19:36.728Z,67.92
2023-01-17T04:22:03.791Z,68.55
2023-01-17T04:24:30.465Z,70.18
2023-01-17T04:26:57.107Z,71.43
2023-01-17T04:29:23.797Z,69.24
2023-01-17T04:31:50.416Z,68.33
2023-01-17T04:34:17.144Z,69.65
2023-01-17T04:36:44.047Z,73.13
2023-01-17T04:39:10.706Z,75.11
2023-01-17T04:41:37.297Z,73.96
2023-01-17T04:44:04.051Z,73.63
2023-01-17T04:46:32.434Z,75.30
2023-01-17T04:48:59.262Z,75.15
2023-01-17T04:51:25.924Z,76.14
2023-01-17T04:53:52.544Z,76.71
2023-01-17T04:56:19.447Z,77.65
2023-01-17T04:58:46.118Z,77.82
2023-01-17T05:01:12.818Z,76.56
2023-01-17T05:03:39.636Z,73.91
2023-01-17T05:06:06.549Z,71.54
2023-01-17T05:08:33.163Z,70.66
2023-01-17T05:10:59.978Z,68.03
2023-01-17T05:13:26.706Z,69.12
2023-01-17T05:15:53.499Z,66.88
2023-01-17T05:18:20.114Z,65.66
2023-01-17T05:20:46.925Z,64.08
2023-01-17T05:23:13.726Z,64.58
2023-01-17T05:25:40.334Z,63.23
2023-01-17T05:28:06.973Z,63.19
2023-01-17T05:30:33.600Z,63.83
2023-01-17T05:33:01.108Z,64.73
2023-01-17T05:35:31.541Z,65.63
2023-01-17T05:38:01.103Z,67.15
2023-01-17T05:40:30.023Z,68.47
2023-01-17T05:42:58.930Z,66.82
2023-01-17T05:45:27.876Z,67.37
2023-01-17T05:47:56.327Z,71.66
2023-01-17T05:50:34.949Z,71.09
2023-01-17T05:53:05.741Z,70.07
2023-01-17T05:55:33.976Z,68.63
2023-01-17T05:58:01.817Z,68.69
2023-01-17T06:00:29.121Z,67.11
2023-01-17T06:02:58.477Z,66.28
2023-01-17T06:05:27.088Z,64.92
2023-01-17T06:07:53.744Z,66.21
2023-01-17T06:10:21.601Z,65.31
2023-01-17T06:12:49.041Z,66.95
2023-01-17T06:15:18.173Z,67.94
2023-01-17T06:17:44.959Z,68.20
2023-01-17T06:20:12.568Z,67.39
2023-01-17T06:22:39.475Z,67.15
2023-01-17T06:25:06.272Z,65.69
2023-01-17T06:27:32.995Z,66.55
2023-01-17T06:29:59.921Z,66.63
2023-01-17T06:32:26.563Z,64.75
2023-01-17T06:34:53.191Z,69.24
2023-01-17T06:37:19.802Z,70.60
2023-01-17T06:39:46.733Z,70.95
2023-01-17T06:42:13.471Z,71.26
2023-01-17T06:44:40.072Z,71.34
2023-01-17T06:47:08.106Z,71.08
2023-01-17T06:49:35.409Z,72.33
2023-01-17T06:52:02.013Z,73.05
2023-01-17T06:54:28.603Z,71.88
2023-01-17T06:56:55.205Z,71.55
2023-01-17T06:59:21.834Z,70.84
2023-01-17T07:01:49.057Z,70.30
2023-01-17T07:04:15.693Z,70.64
2023-01-17T07:06:42.328Z,69.15
2023-01-17T07:09:09.500Z,69.13
2023-01-17T07:11:36.089Z,70.53
2023-01-17T07:14:02.836Z,72.70
2023-01-17T07:16:29.493Z,73.16
2023-01-17T07:18:56.171Z,74.10
2023-01-17T07:21:22.753Z,74.95
2023-01-17T07:23:49.324Z,76.49
2023-01-17T07:26:16.072Z,77.77
2023-01-17T07:28:42.695Z,77.42
2023-01-17T07:31:09.561Z,77.96
2023-01-17T07:33:36.148Z,76.84
2023-01-17T07:36:07.726Z,76.65
2023-01-17T07:38:34.811Z,76.88
2023-01-17T07:41:01.667Z,76.71
2023-01-17T07:43:28.289Z,74.86
2023-01-17T07:45:55.156Z,73.50
2023-01-17T07:48:24.594Z,74.41
2023-01-17T07:50:58.440Z,75.05
2023-01-17T07:53:28.165Z,74.58
2023-01-17T07:56:00.695Z,74.99
2023-01-17T07:58:27.358Z,72.18
2023-01-17T08:00:55.116Z,70.96
2023-01-17T08:03:21.845Z,69.20
2023-01-17T08:05:56.144Z,68.77
2023-01-17T08:08:22.848Z,68.23
2023-01-17T08:10:49.553Z,67.47
2023-01-17T08:13:16.163Z,65.98
2023-01-17T08:15:42.848Z,65.71
2023-01-17T08:18:09.873Z,64.76
2023-01-17T08:20:36.469Z,64.36
2023-01-17T08:23:03.078Z,64.29
2023-01-17T08:25:29.791Z,64.77
2023-01-17T08:27:58.504Z,64.01
2023-01-17T08:30:26.339Z,64.69
2023-01-17T08:32:53.276Z,65.24
2023-01-17T08:35:20.429Z,65.72
2023-01-17T08:37:48.246Z,65.68
2023-01-17T08:40:19.334Z,66.63
2023-01-17T08:42:55.337Z,66.28
2023-01-17T08:45:22.055Z,66.77
2023-01-17T08:47:48.781Z,66.00
2023-01-17T08:50:15.700Z,69.30
2023-01-17T08:52:42.313Z,68.42
2023-01-17T08:55:09.924Z,69.65
2023-01-17T08:57:36.556Z,74.44
2023-01-17T09:00:03.740Z,73.32
2023-01-17T09:02:30.820Z,71.33
2023-01-17T09:04:57.442Z,69.45
2023-01-17T09:07:24.221Z,67.73
2023-01-17T09:09:50.853Z,68.71
2023-01-17T09:12:17.528Z,67.77
2023-01-17T09:14:44.191Z,66.49
2023-01-17T09:17:10.822Z,65.40
2023-01-17T09:19:37.501Z,65.48
2023-01-17T09:22:05.593Z,64.33
2023-01-17T09:24:33.184Z,63.19
2023-01-17T09:27:00.512Z,63.47
2023-01-17T09:29:27.663Z,63.38
2023-01-17T09:31:54.268Z,62.90
2023-01-17T09:34:21.330Z,62.60
2023-01-17T09:36:48.023Z,67.17
2023-01-17T09:39:14.612Z,65.88
2023-01-17T09:41:51.930Z,65.67
2023-01-17T09:44:37.267Z,66.43
2023-01-17T09:47:17.678Z,66.63
2023-01-17T09:49:46.239Z,69.59
2023-01-17T09:52:19.477Z,68.81
2023-01-17T09:54:49.264Z,66.35
2023-01-17T09:57:40.969Z,69.16
2023-01-17T10:00:39.580Z,69.49
2023-01-17T10:03:37.475Z,67.93
2023-01-17T10:06:50.152Z,69.42
2023-01-17T10:10:01.030Z,69.35
2023-01-17T10:12:43.886Z,68.69
2023-01-17T10:15:22.162Z,67.31
2023-01-17T10:18:08.027Z,67.64
2023-01-17T10:20:53.577Z,70.18
2023-01-17T10:23:20.145Z,70.33
2023-01-17T10:25:49.909Z,70.17
2023-01-17T10:28:23.828Z,69.52
2023-01-17T10:30:54.478Z,70.55
2023-01-17T10:33:22.946Z,71.53
2023-01-17T10:36:05.758Z,70.66
2023-01-17T10:38:38.517Z,70.60
2023-01-17T10:41:21.447Z,70.48
2023-01-17T10:44:12.281Z,70.59
2023-01-17T10:47:02.183Z,71.69
2023-01-17T10:49:29.244Z,72.08
2023-01-17T10:52:09.770Z,71.55
2023-01-17T10:55:13.318Z,70.28
2023-01-17T10:57:45.686Z,71.21
2023-01-17T11:00:40.789Z,71.15
2023-01-17T11:03:11.412Z,72.13
2023-01-17T11:05:38.613Z,73.58
2023-01-17T11:08:09.235Z,73.96
2023-01-17T11:10:44.003Z,72.67
2023-01-17T11:13:29.530Z,73.80
2023-01-17T11:16:01.511Z,74.10
2023-01-17T11:18:35.397Z,74.55
2023-01-17T11:21:22.769Z,73.85
2023-01-17T11:23:53.946Z,73.47
2023-01-17T11:26:36.901Z,71.51
2023-01-17T11:29:25.311Z,71.18
2023-01-17T11:31:52.043Z,70.34
2023-01-17T11:34:24.332Z,68.51
2023-01-17T11:37:19.024Z,69.45
2023-01-17T11:39:47.040Z,69.29
2023-01-17T11:42:36.532Z,70.45
2023-01-17T11:45:21.936Z,72.37
2023-01-17T11:47:48.559Z,70.89
2023-01-17T11:50:27.006Z,69.52
2023-01-17T11:53:05.360Z,68.75
2023-01-17T11:55:32.499Z,69.55
2023-01-17T11:57:59.475Z,68.59
2023-01-17T12:00:37.024Z,69.37
2023-01-17T12:03:28.148Z,69.96
2023-01-17T12:06:17.308Z,71.95
2023-01-17T12:09:03.060Z,70.08
2023-01-17T12:11:46.691Z,69.65
2023-01-17T12:14:31.366Z,69.60
2023-01-17T12:17:22.089Z,70.21
2023-01-17T12:19:59.707Z,73.04
2023-01-17T12:22:38.716Z,73.29
2023-01-17T12:25:26.871Z,74.90
2023-01-17T12:28:44.557Z,75.72
2023-01-17T12:31:32.538Z,73.86
2023-01-17T12:33:59.679Z,71.92
2023-01-17T12:36:49.457Z,72.95
2023-01-17T12:39:20.766Z,70.56
2023-01-17T12:42:03.331Z,69.60
2023-01-17T12:44:44.317Z,68.24
2023-01-17T12:47:15.891Z,66.94
2023-01-17T12:49:54.388Z,66.53
2023-01-17T12:52:38.484Z,67.22
2023-01-17T12:55:32.967Z,66.38
2023-01-17T12:58:04.896Z,67.68
2023-01-17T13:00:38.866Z,66.17
2023-01-17T13:03:27.266Z,68.96
2023-01-17T13:05:57.596Z,68.77
2023-01-17T13:08:32.140Z,67.36
2023-01-17T13:11:11.308Z,66.10
2023-01-17T13:13:38.061Z,67.77
2023-01-17T13:16:14.388Z,66.91
2023-01-17T13:18:47.175Z,67.53
2023-01-17T13:21:25.934Z,68.75
2023-01-17T13:23:58.643Z,70.75
2023-01-17T13:26:25.251Z,72.74
2023-01-17T13:29:11.395Z,70.89
2023-01-17T13:32:14.586Z,71.90
2023-01-17T13:34:56.081Z,70.09
2023-01-17T13:37:44.329Z,68.15
2023-01-17T13:40:29.705Z,68.71
2023-01-17T13:43:01.766Z,68.85
2023-01-17T13:45:34.234Z,70.52
2023-01-17T13:48:12.643Z,74.16
2023-01-17T13:50:41.907Z,73.41
2023-01-17T13:53:27.228Z,71.99
2023-01-17T13:56:01.955Z,74.36
2023-01-17T13:58:46.790Z,75.62
2023-01-17T14:01:13.461Z,74.71
2023-01-17T14:03:49.155Z,74.00
2023-01-17T14:06:36.734Z,72.49
2023-01-17T14:09:18.421Z,74.07
2023-01-17T14:12:00.332Z,74.36
2023-01-17T14:14:42.292Z,72.28
2023-01-17T14:17:18.364Z,70.20
2023-01-17T14:19:51.446Z,69.06
2023-01-17T14:22:20.969Z,66.23
2023-01-17T14:25:17.330Z,65.98
2023-01-17T14:28:01.878Z,66.38
2023-01-17T14:30:34.224Z,68.38
2023-01-17T14:33:16.665Z,70.58
2023-01-17T14:35:56.714Z,71.69
2023-01-17T14:38:32.235Z,71.98
2023-01-17T14:41:04.602Z,72.11
2023-01-17T14:43:35.189Z,71.22
2023-01-17T14:46:06.946Z,71.48
2023-01-17T14:48:34.367Z,71.66
2023-01-17T14:51:01.066Z,72.21
2023-01-17T14:53:29.956Z,73.76
2023-01-17T14:56:17.983Z,71.61
2023-01-17T14:58:44.635Z,69.56
2023-01-17T15:01:18.004Z,71.02
2023-01-17T15:03:52.814Z,71.02
2023-01-17T15:06:38.936Z,71.84
2023-01-17T15:09:11.145Z,69.70
2023-01-17T15:11:39.384Z,68.37
2023-01-17T15:14:07.161Z,68.01
2023-01-17T15:16:37.551Z,71.63
2023-01-17T15:19:12.986Z,70.67
2023-01-17T15:21:43.030Z,72.50
2023-01-17T15:24:22.971Z,74.63
2023-01-17T15:26:50.344Z,74.37
2023-01-17T15:29:27.569Z,75.11
2023-01-17T15:31:58.362Z,73.85
2023-01-17T15:34:31.983Z,71.93
2023-01-17T15:37:05.717Z,73.60
2023-01-17T15:39:40.313Z,72.84
2023-01-17T15:42:26.767Z,74.02
2023-01-17T15:44:57.185Z,74.88
2023-01-17T15:47:34.174Z,76.02
2023-01-17T15:50:18.049Z,74.15
2023-01-17T15:52:52.843Z,73.06
2023-01-17T15:55:31.760Z,74.03
2023-01-17T15:57:59.309Z,74.85
2023-01-17T16:00:36.110Z,73.49
2023-01-17T16:03:23.999Z,73.56
2023-01-17T16:05:53.106Z,73.46
2023-01-17T16:08:51.249Z,71.17
2023-01-17T16:11:17.884Z,74.91
2023-01-17T16:13:44.527Z,72.39
2023-01-17T16:16:18.531Z,73.74
2023-01-17T16:18:46.819Z,74.03
2023-01-17T16:21:23.642Z,71.89
2023-01-17T16:23:50.628Z,74.66
2023-01-17T16:26:18.304Z,75.32
2023-01-17T16:28:45.174Z,74.00
2023-01-17T16:31:12.001Z,73.83
2023-01-17T16:33:38.705Z,73.05
2023-01-17T16:36:05.891Z,71.75
2023-01-17T16:38:32.573Z,72.21
2023-01-17T16:40:59.218Z,72.73
2023-01-17T16:43:25.905Z,72.88
2023-01-17T16:45:53.205Z,73.28
2023-01-17T16:48:21.373Z,72.73
2023-01-17T16:50:51.027Z,70.97
2023-01-17T16:53:24.924Z,71.92
2023-01-17T16:55:58.258Z,73.98
2023-01-17T16:58:25.246Z,73.92
2023-01-17T17:00:51.946Z,75.12
2023-01-17T17:03:21.108Z,72.54
2023-01-17T17:05:56.221Z,70.15
2023-01-17T17:08:23.039Z,71.64
2023-01-17T17:10:50.437Z,73.96
2023-01-17T17:13:17.105Z,75.16
2023-01-17T17:15:43.898Z,72.91
2023-01-17T17:18:15.217Z,70.43
2023-01-17T17:20:42.322Z,73.63
2023-01-17T17:23:09.044Z,73.55
2023-01-17T17:25:36.454Z,70.52
2023-01-17T17:28:04.207Z,69.47
2023-01-17T17:30:31.036Z,69.03
2023-01-17T17:32:58.197Z,68.58
2023-01-17T17:35:24.843Z,67.81
2023-01-17T17:37:51.645Z,67.51
2023-01-17T17:40:18.368Z,70.24
2023-01-17T17:42:44.967Z,72.75
2023-01-17T17:45:11.737Z,74.35
2023-01-17T17:47:38.369Z,73.27
2023-01-17T17:50:05.315Z,72.11
2023-01-17T17:52:31.963Z,70.53
2023-01-17T17:54:58.702Z,70.09
2023-01-17T17:57:27.220Z,67.74
2023-01-17T17:59:56.322Z,68.31
2023-01-17T18:02:22.952Z,70.10
2023-01-17T18:04:49.612Z,69.14
2023-01-17T18:07:16.261Z,69.14
2023-01-17T18:09:42.853Z,69.77
2023-01-17T18:12:09.466Z,69.36
2023-01-17T18:14:36.197Z,68.09
2023-01-17T18:17:02.837Z,67.58
2023-01-17T18:19:29.510Z,66.49
2023-01-17T18:21:56.154Z,66.21
2023-01-17T18:24:24.399Z,65.78
2023-01-17T18:26:56.331Z,65.04
2023-01-17T18:29:26.116Z,65.40
2023-01-17T18:31:53.836Z,67.51
2023-01-17T18:34:28.009Z,66.62
2023-01-17T18:36:55.308Z,65.58
2023-01-17T18:39:28.899Z,65.24
2023-01-17T18:41:58.541Z,64.49
2023-01-17T18:44:25.403Z,67.13
2023-01-17T18:46:55.923Z,69.56
2023-01-17T18:49:22.657Z,71.08
2023-01-17T18:51:49.608Z,68.44
2023-01-17T18:54:17.359Z,68.00
2023-01-17T18:56:43.990Z,67.48
2023-01-17T18:59:13.258Z,66.24
2023-01-17T19:01:40.426Z,64.12
2023-01-17T19:04:09.363Z,64.46
2023-01-17T19:06:39.450Z,63.31
2023-01-17T19:09:08.007Z,66.08
2023-01-17T19:11:35.763Z,68.83
2023-01-17T19:14:03.182Z,66.64
2023-01-17T19:16:32.413Z,70.11
2023-01-17T19:19:04.709Z,69.63
2023-01-17T19:21:31.947Z,69.99
2023-01-17T19:23:59.600Z,71.29
2023-01-17T19:26:27.783Z,69.09
2023-01-17T19:28:56.900Z,68.07
2023-01-17T19:31:29.400Z,66.44
2023-01-17T19:34:00.196Z,64.69
2023-01-17T19:36:31.042Z,64.97
2023-01-17T19:39:06.322Z,65.21
2023-01-17T19:41:41.057Z,63.86
2023-01-17T19:44:09.386Z,63.87
2023-01-17T19:46:37.115Z,63.39
2023-01-17T19:49:08.393Z,64.39
2023-01-17T19:51:35.676Z,64.43
2023-01-17T19:54:02.341Z,64.88
2023-01-17T19:56:29.687Z,63.99
2023-01-17T19:58:56.573Z,64.54
2023-01-17T20:01:26.686Z,65.02
2023-01-17T20:03:54.961Z,65.94
2023-01-17T20:06:24.889Z,66.41
2023-01-17T20:08:51.575Z,67.46
2023-01-17T20:11:21.474Z,66.28
2023-01-17T20:13:51.265Z,66.49
2023-01-17T20:16:21.337Z,67.81
2023-01-17T20:18:48.083Z,69.35
2023-01-17T20:21:18.519Z,69.41
2023-01-17T20:23:49.760Z,68.29
2023-01-17T20:26:22.689Z,69.45
2023-01-17T20:28:53.304Z,68.25
2023-01-17T20:31:24.999Z,69.18
2023-01-17T20:33:54.262Z,67.12
2023-01-17T20:36:24.284Z,65.42
2023-01-17T20:38:51.204Z,64.89
2023-01-17T20:41:26.217Z,65.23
2023-01-17T20:43:57.105Z,68.16
2023-01-17T20:46:27.334Z,68.43
2023-01-17T20:48:56.942Z,66.89
2023-01-17T20:51:26.488Z,65.54
2023-01-17T20:54:01.173Z,64.42
2023-01-17T20:56:28.463Z,64.35
2023-01-17T20:58:55.294Z,64.03
2023-01-17T21:01:22.762Z,64.29
2023-01-17T21:03:52.009Z,64.09
2023-01-17T21:06:20.159Z,64.04
2023-01-17T21:08:49.126Z,64.50
2023-01-17T21:11:20.218Z,64.92
2023-01-17T21:13:50.800Z,64.49
2023-01-17T21:16:20.135Z,64.58
2023-01-17T21:18:51.455Z,64.11
2023-01-17T21:21:21.127Z,64.13
2023-01-17T21:23:49.526Z,65.72
2023-01-17T21:26:17.655Z,65.91
2023-01-17T21:28:46.134Z,68.50
2023-01-17T21:31:19.700Z,70.26
2023-01-17T21:33:47.452Z,70.75
2023-01-17T21:36:14.923Z,70.16
2023-01-17T21:38:41.980Z,68.96
2023-01-17T21:41:09.096Z,69.69
2023-01-17T21:43:35.720Z,69.17
2023-01-17T21:46:02.998Z,69.12
2023-01-17T21:48:29.757Z,69.41
2023-01-17T21:50:56.560Z,69.49
2023-01-17T21:53:23.423Z,69.35
2023-01-17T21:55:50.120Z,68.70
2023-01-17T21:58:17.768Z,67.10
2023-01-17T22:00:44.766Z,67.33
2023-01-17T22:03:11.389Z,67.46
2023-01-17T22:05:38.232Z,68.54
2023-01-17T22:08:07.267Z,67.67
2023-01-17T22:10:36.576Z,67.25
2023-01-17T22:13:03.176Z,66.24
2023-01-17T22:15:29.756Z,65.62
2023-01-17T22:17:56.683Z,65.14
2023-01-17T22:20:25.757Z,65.40
2023-01-17T22:22:52.607Z,64.94
2023-01-17T22:25:19.454Z,64.66
2023-01-17T22:27:46.821Z,66.78
2023-01-17T22:30:13.710Z,65.47
2023-01-17T22:32:40.349Z,63.96
2023-01-17T22:35:08.050Z,63.25
2023-01-17T22:37:34.765Z,65.74
2023-01-17T22:40:01.440Z,66.70
2023-01-17T22:42:28.157Z,63.64
2023-01-17T22:44:54.739Z,62.52
2023-01-17T22:47:21.344Z,62.52
2023-01-17T22:49:47.959Z,62.41
2023-01-17T22:52:14.551Z,62.70
2023-01-17T22:54:42.340Z,63.14
2023-01-17T22:57:08.968Z,62.13
2023-01-17T22:59:35.590Z,61.14
2023-01-17T23:02:02.194Z,61.22
2023-01-17T23:04:28.896Z,60.41
2023-01-17T23:06:55.533Z,61.01
2023-01-17T23:09:22.151Z,61.85
2023-01-17T23:11:53.328Z,59.79
2023-01-17T23:14:30.229Z,61.32
2023-01-17T23:17:02.261Z,62.53
2023-01-17T23:19:35.186Z,63.70
2023-01-17T23:22:07.590Z,63.94
2023-01-17T23:24:34.220Z,66.89
2023-01-17T23:27:00.794Z,68.53
2023-01-17T23:29:27.471Z,67.74
2023-01-17T23:31:54.088Z,66.46
2023-01-17T23:34:20.783Z,66.50
2023-01-17T23:36:47.493Z,66.59
2023-01-17T23:39:14.174Z,68.02
2023-01-17T23:41:40.761Z,69.19
2023-01-17T23:44:07.575Z,69.83
2023-01-17T23:46:34.189Z,71.46
2023-01-17T23:49:00.864Z,71.49
2023-01-17T23:51:30.091Z,72.91
2023-01-17T23:53:56.748Z,75.33
2023-01-17T23:56:24.036Z,76.43
2023-01-17T23:58:50.996Z,77.08
